createdAt,value
2019-02-18T00:02:45.339Z,50.90
2019-02-18T00:05:40.355Z,50.80
2019-02-18T00:08:35.124Z,50.80
2019-02-18T00:11:30.022Z,51.00
2019-02-18T00:14:24.718Z,50.40
2019-02-18T00:17:19.555Z,50.90
2019-02-18T00:20:14.732Z,50.90
2019-02-18T00:23:09.496Z,51.00
2019-02-18T00:26:04.489Z,50.90
2019-02-18T00:28:59.602Z,50.90
2019-02-18T00:31:54.196Z,51.10
2019-02-18T00:34:48.766Z,51.10
2019-02-18T00:37:43.303Z,51.20
2019-02-18T00:40:37.788Z,51.20
2019-02-18T00:43:32.499Z,51.30
2019-02-18T00:46:27.094Z,51.20
2019-02-18T00:49:21.630Z,51.20
2019-02-18T00:52:16.597Z,51.50
2019-02-18T00:55:11.357Z,51.80
2019-02-18T00:58:05.860Z,51.90
2019-02-18T01:01:00.486Z,52.30
2019-02-18T01:03:55.124Z,52.10
2019-02-18T01:06:50.050Z,52.40
2019-02-18T01:09:45.107Z,52.70
2019-02-18T01:12:39.733Z,52.40
2019-02-18T01:15:34.422Z,52.30
2019-02-18T01:18:29.055Z,52.40
2019-02-18T01:21:23.900Z,52.60
2019-02-18T01:24:19.034Z,52.80
2019-02-18T01:27:13.860Z,53.00
2019-02-18T01:30:09.673Z,53.00
2019-02-18T01:33:04.264Z,52.80
2019-02-18T01:35:58.802Z,52.80
2019-02-18T01:38:53.951Z,52.80
2019-02-18T01:41:48.818Z,52.70
2019-02-18T01:44:44.161Z,52.70
2019-02-18T01:47:38.864Z,52.90
2019-02-18T01:50:33.741Z,53.10
2019-02-18T01:53:28.668Z,52.90
2019-02-18T01:56:23.601Z,52.90
2019-02-18T01:59:18.025Z,53.10
2019-02-18T02:02:12.739Z,53.10
2019-02-18T02:05:07.536Z,53.30
2019-02-18T02:08:03.891Z,53.50
2019-02-18T02:10:58.426Z,53.80
2019-02-18T02:13:53.703Z,54.40
2019-02-18T02:16:48.167Z,54.20
2019-02-18T02:19:42.766Z,54.60
2019-02-18T02:22:37.596Z,55.10
2019-02-18T02:25:32.223Z,55.50
2019-02-18T02:28:28.867Z,55.60
2019-02-18T02:31:22.292Z,55.50
2019-02-18T02:34:16.882Z,55.40
2019-02-18T02:37:12.746Z,55.70
2019-02-18T02:40:07.431Z,55.70
2019-02-18T02:43:02.416Z,55.70
2019-02-18T02:45:57.498Z,55.50
2019-02-18T02:48:52.569Z,55.40
2019-02-18T02:51:47.709Z,55.40
2019-02-18T02:54:43.295Z,55.20
2019-02-18T02:57:37.920Z,55.20
2019-02-18T03:00:33.042Z,55.30
2019-02-18T03:03:28.543Z,55.00
2019-02-18T03:06:23.496Z,54.70
2019-02-18T03:09:18.073Z,54.70
2019-02-18T03:12:12.741Z,54.60
2019-02-18T03:15:08.047Z,54.30
2019-02-18T03:18:02.943Z,54.20
2019-02-18T03:20:58.474Z,54.20
2019-02-18T03:23:54.135Z,54.10
2019-02-18T03:26:49.143Z,53.80
2019-02-18T03:30:24.951Z,53.60
2019-02-18T03:33:22.233Z,53.40
2019-02-18T03:36:18.407Z,53.10
2019-02-18T03:39:13.642Z,52.70
2019-02-18T03:42:08.634Z,52.60
2019-02-18T03:45:03.603Z,52.40
2019-02-18T03:47:58.752Z,52.10
2019-02-18T03:50:53.947Z,51.80
2019-02-18T03:53:48.901Z,51.60
2019-02-18T03:56:44.301Z,51.40
2019-02-18T03:59:39.397Z,51.20
2019-02-18T04:02:38.130Z,50.90
2019-02-18T04:05:33.250Z,50.60
2019-02-18T04:08:28.722Z,50.50
2019-02-18T04:11:23.714Z,50.80
2019-02-18T04:14:18.746Z,50.70
2019-02-18T04:17:13.765Z,50.40
2019-02-18T04:20:08.555Z,50.00
2019-02-18T04:23:03.705Z,49.60
2019-02-18T04:26:00.271Z,49.70
2019-02-18T04:28:56.408Z,49.20
2019-02-18T04:31:51.365Z,48.80
2019-02-18T04:34:47.552Z,48.70
2019-02-18T04:37:43.743Z,48.80
2019-02-18T04:40:39.514Z,48.60
2019-02-18T04:43:34.534Z,48.30
2019-02-18T04:46:30.583Z,47.80
2019-02-18T04:49:26.204Z,47.50
2019-02-18T04:52:21.248Z,47.30
2019-02-18T04:55:16.741Z,47.10
2019-02-18T04:58:14.700Z,47.00
2019-02-18T05:01:12.996Z,47.00
2019-02-18T05:04:07.873Z,46.60
2019-02-18T05:07:03.190Z,45.80
2019-02-18T05:09:58.732Z,46.10
2019-02-18T05:12:53.521Z,46.20
2019-02-18T05:15:48.878Z,45.90
2019-02-18T05:18:44.118Z,45.50
2019-02-18T05:21:45.625Z,45.30
2019-02-18T05:25:02.852Z,45.20
2019-02-18T05:28:05.372Z,45.10
2019-02-18T05:31:04.834Z,44.80
2019-02-18T05:34:03.541Z,44.50
2019-02-18T05:37:01.454Z,44.40
2019-02-18T05:40:02.191Z,44.40
2019-02-18T05:43:04.081Z,44.10
2019-02-18T05:46:11.386Z,43.90
2019-02-18T05:49:12.741Z,43.70
2019-02-18T05:52:14.129Z,43.20
2019-02-18T05:55:09.038Z,42.60
2019-02-18T05:58:04.016Z,42.50
2019-02-18T06:00:59.517Z,42.20
2019-02-18T06:04:00.248Z,41.80
2019-02-18T06:06:56.720Z,41.20
2019-02-18T06:09:52.739Z,40.60
2019-02-18T06:12:57.013Z,40.50
2019-02-18T06:15:56.594Z,40.20
2019-02-18T06:18:51.796Z,40.40
2019-02-18T06:21:47.198Z,40.20
2019-02-18T06:24:43.065Z,40.40
2019-02-18T06:27:37.851Z,40.20
2019-02-18T06:30:32.957Z,39.80
2019-02-18T06:33:28.510Z,39.70
2019-02-18T06:36:27.147Z,39.70
2019-02-18T06:39:20.638Z,39.20
2019-02-18T06:42:18.980Z,39.30
2019-02-18T06:45:35.503Z,39.60
2019-02-18T06:48:36.271Z,39.80
2019-02-18T06:51:36.353Z,39.80
2019-02-18T06:54:32.018Z,40.00
2019-02-18T06:57:55.362Z,40.30
2019-02-18T07:00:58.251Z,39.50
2019-02-18T07:04:14.481Z,39.50
2019-02-18T07:07:16.697Z,39.20
2019-02-18T07:10:37.053Z,38.00
2019-02-18T07:13:35.507Z,37.50
2019-02-18T07:16:31.823Z,37.30
2019-02-18T07:19:27.495Z,36.80
2019-02-18T07:22:26.444Z,36.80
2019-02-18T07:25:21.843Z,35.00
2019-02-18T07:28:17.078Z,35.40
2019-02-18T07:31:12.656Z,35.60
2019-02-18T07:34:09.657Z,34.00
2019-02-18T07:37:04.797Z,33.90
2019-02-18T07:40:02.183Z,33.90
2019-02-18T07:42:57.367Z,33.40
2019-02-18T07:45:53.063Z,33.10
2019-02-18T07:48:52.963Z,32.90
2019-02-18T07:51:49.093Z,32.90
2019-02-18T07:54:46.556Z,32.50
2019-02-18T07:57:41.593Z,32.00
2019-02-18T08:00:37.120Z,31.90
2019-02-18T08:03:32.611Z,32.00
2019-02-18T08:06:28.033Z,32.60
2019-02-18T08:09:22.949Z,32.20
2019-02-18T08:12:17.988Z,31.60
2019-02-18T08:15:14.803Z,31.70
2019-02-18T08:18:10.711Z,31.20
2019-02-18T08:21:05.412Z,31.20
2019-02-18T08:24:33.670Z,30.90
2019-02-18T08:27:28.349Z,31.80
2019-02-18T08:30:25.895Z,30.90
2019-02-18T08:33:20.802Z,31.10
2019-02-18T08:36:15.801Z,31.20
2019-02-18T08:39:11.457Z,30.60
2019-02-18T08:42:07.129Z,30.30
2019-02-18T08:45:02.908Z,30.50
2019-02-18T08:47:57.889Z,30.90
2019-02-18T08:50:53.426Z,30.80
2019-02-18T08:53:48.854Z,31.00
2019-02-18T08:56:45.943Z,31.70
2019-02-18T08:59:39.357Z,31.60
2019-02-18T09:02:35.196Z,31.10
2019-02-18T09:05:30.395Z,30.90
2019-02-18T09:08:25.509Z,30.60
2019-02-18T09:11:20.287Z,30.80
2019-02-18T09:14:16.469Z,30.90
2019-02-18T09:17:11.663Z,30.90
2019-02-18T09:20:09.116Z,30.20
2019-02-18T09:23:14.829Z,29.80
2019-02-18T09:26:09.650Z,29.90
2019-02-18T09:29:04.579Z,30.30
2019-02-18T09:31:59.605Z,30.30
2019-02-18T09:35:01.565Z,30.40
2019-02-18T09:37:50.667Z,30.90
2019-02-18T09:40:50.497Z,30.70
2019-02-18T09:43:42.349Z,30.40
2019-02-18T09:46:40.251Z,30.30
2019-02-18T09:49:33.926Z,30.70
2019-02-18T09:52:30.599Z,30.10
2019-02-18T09:55:26.074Z,30.00
2019-02-18T09:58:21.322Z,30.10
2019-02-18T10:01:18.405Z,29.80
2019-02-18T10:04:16.943Z,28.90
2019-02-18T10:07:13.541Z,28.50
2019-02-18T10:10:09.513Z,28.10
2019-02-18T10:13:08.396Z,28.10
2019-02-18T10:16:09.316Z,27.40
2019-02-18T10:19:11.320Z,27.60
2019-02-18T10:22:08.244Z,27.10
2019-02-18T10:25:06.015Z,27.30
2019-02-18T10:28:02.916Z,27.20
2019-02-18T10:30:59.770Z,27.30
2019-02-18T10:33:58.542Z,27.40
2019-02-18T10:36:54.619Z,27.60
2019-02-18T10:39:50.312Z,28.10
2019-02-18T10:42:45.772Z,26.70
2019-02-18T10:45:40.759Z,26.30
2019-02-18T10:48:39.334Z,26.60
2019-02-18T10:51:35.609Z,26.70
2019-02-18T10:54:34.477Z,26.90
2019-02-18T10:57:33.014Z,27.00
2019-02-18T11:00:29.153Z,27.20
2019-02-18T11:03:24.779Z,27.20
2019-02-18T11:06:20.258Z,27.40
2019-02-18T11:09:15.796Z,27.70
2019-02-18T11:12:11.408Z,27.90
2019-02-18T11:15:07.684Z,27.60
2019-02-18T11:18:03.192Z,27.90
2019-02-18T11:21:00.650Z,27.80
2019-02-18T11:23:55.452Z,27.90
2019-02-18T11:26:50.843Z,28.30
2019-02-18T11:29:46.245Z,28.60
2019-02-18T11:32:42.049Z,28.50
2019-02-18T11:35:36.810Z,28.60
2019-02-18T11:38:31.941Z,28.70
2019-02-18T11:41:27.732Z,28.40
2019-02-18T11:44:28.257Z,28.40
2019-02-18T11:47:23.562Z,28.70
2019-02-18T11:50:19.301Z,28.70
2019-02-18T11:53:14.252Z,28.60
2019-02-18T11:56:09.687Z,28.80
2019-02-18T11:59:05.852Z,28.90
2019-02-18T12:02:00.948Z,28.80
2019-02-18T12:04:56.162Z,28.90
2019-02-18T12:07:51.603Z,29.10
2019-02-18T12:10:47.511Z,29.10
2019-02-18T12:14:00.483Z,29.40
2019-02-18T12:16:55.138Z,29.40
2019-02-18T12:19:50.569Z,29.60
2019-02-18T12:22:45.497Z,29.80
2019-02-18T12:25:40.385Z,30.10
2019-02-18T12:28:35.175Z,30.50
2019-02-18T12:31:31.011Z,31.10
2019-02-18T12:34:25.598Z,31.70
2019-02-18T12:37:20.632Z,32.20
2019-02-18T12:40:15.497Z,32.60
2019-02-18T12:43:10.462Z,33.00
2019-02-18T12:46:15.509Z,33.20
2019-02-18T12:49:02.708Z,33.30
2019-02-18T12:51:57.310Z,33.40
2019-02-18T12:54:53.597Z,33.70
2019-02-18T12:57:48.558Z,33.80
2019-02-18T13:00:43.838Z,34.10
2019-02-18T13:03:38.898Z,34.50
2019-02-18T13:06:33.540Z,34.80
2019-02-18T13:09:29.185Z,35.10
2019-02-18T13:12:29.826Z,35.40
2019-02-18T13:15:36.108Z,35.80
2019-02-18T13:18:24.714Z,36.10
2019-02-18T13:21:19.603Z,36.50
2019-02-18T13:24:14.488Z,36.90
2019-02-18T13:27:11.844Z,37.30
2019-02-18T13:30:07.184Z,37.20
2019-02-18T13:33:02.005Z,37.10
2019-02-18T13:35:56.855Z,37.00
2019-02-18T13:38:52.094Z,37.20
2019-02-18T13:41:47.280Z,37.40
2019-02-18T13:44:42.375Z,37.70
2019-02-18T13:47:38.114Z,37.60
2019-02-18T13:50:34.456Z,37.50
2019-02-18T13:53:29.323Z,37.60
2019-02-18T13:56:23.915Z,37.50
2019-02-18T13:59:29.840Z,37.60
2019-02-18T14:02:24.652Z,38.00
2019-02-18T14:05:19.321Z,38.70
2019-02-18T14:08:14.082Z,39.00
2019-02-18T14:11:09.553Z,39.20
2019-02-18T14:14:04.737Z,39.60
2019-02-18T14:16:59.833Z,39.60
2019-02-18T14:19:54.996Z,40.00
2019-02-18T14:22:51.795Z,40.30
2019-02-18T14:25:46.983Z,40.40
2019-02-18T14:28:42.024Z,40.40
2019-02-18T14:31:36.746Z,40.50
2019-02-18T14:34:31.664Z,40.60
2019-02-18T14:37:26.350Z,40.70
2019-02-18T14:40:22.270Z,40.60
2019-02-18T14:43:17.312Z,40.70
2019-02-18T14:46:12.296Z,40.90
2019-02-18T14:49:07.442Z,40.90
2019-02-18T14:52:02.620Z,40.70
2019-02-18T14:54:57.589Z,40.40
2019-02-18T14:57:53.772Z,40.30
2019-02-18T15:00:48.655Z,40.20
2019-02-18T15:03:43.292Z,40.20
2019-02-18T15:06:38.210Z,40.40
2019-02-18T15:09:32.877Z,40.70
2019-02-18T15:12:32.924Z,40.80
2019-02-18T15:15:22.900Z,40.70
2019-02-18T15:18:17.449Z,40.70
2019-02-18T15:21:12.089Z,41.10
2019-02-18T15:24:07.060Z,41.20
2019-02-18T15:27:01.962Z,41.20
2019-02-18T15:29:56.956Z,41.60
2019-02-18T15:32:51.527Z,41.90
2019-02-18T15:35:46.134Z,42.00
2019-02-18T15:38:41.100Z,41.90
2019-02-18T15:41:36.460Z,41.80
2019-02-18T15:44:31.580Z,41.70
2019-02-18T15:47:26.722Z,41.70
2019-02-18T15:50:21.442Z,41.50
2019-02-18T15:53:16.407Z,41.40
2019-02-18T15:56:11.528Z,41.40
2019-02-18T15:59:06.915Z,41.40
2019-02-18T16:02:01.555Z,41.50
2019-02-18T16:04:56.100Z,41.70
2019-02-18T16:07:51.320Z,41.70
2019-02-18T16:10:47.294Z,42.20
2019-02-18T16:13:41.939Z,42.30
2019-02-18T16:16:37.371Z,41.90
2019-02-18T16:19:31.946Z,41.70
2019-02-18T16:22:27.884Z,41.80
2019-02-18T16:25:24.119Z,41.80
2019-02-18T16:28:19.622Z,41.80
2019-02-18T16:31:14.601Z,41.60
2019-02-18T16:34:09.665Z,41.50
2019-02-18T16:37:05.197Z,41.50
2019-02-18T16:40:00.280Z,41.50
2019-02-18T16:42:59.331Z,41.40
2019-02-18T16:45:50.067Z,41.50
2019-02-18T16:48:45.216Z,41.70
2019-02-18T16:51:40.239Z,41.80
2019-02-18T16:54:35.116Z,42.00
2019-02-18T16:57:30.024Z,41.90
2019-02-18T17:00:29.850Z,41.70
2019-02-18T17:03:24.602Z,41.90
2019-02-18T17:06:19.847Z,42.00
2019-02-18T17:09:18.137Z,41.80
2019-02-18T17:12:12.914Z,41.80
2019-02-18T17:15:07.836Z,41.60
2019-02-18T17:18:02.640Z,41.30
2019-02-18T17:20:57.177Z,41.30
2019-02-18T17:23:52.178Z,41.40
2019-02-18T17:26:46.855Z,41.40
2019-02-18T17:29:41.347Z,41.50
2019-02-18T17:32:36.305Z,41.50
2019-02-18T17:35:31.322Z,41.40
2019-02-18T17:38:26.307Z,41.10
2019-02-18T17:41:21.292Z,41.20
2019-02-18T17:44:20.197Z,41.10
2019-02-18T17:47:12.197Z,41.10
2019-02-18T17:50:07.030Z,41.30
2019-02-18T17:53:01.862Z,41.40
2019-02-18T17:55:56.677Z,41.50
2019-02-18T17:58:51.567Z,41.60
2019-02-18T18:01:46.260Z,41.70
2019-02-18T18:04:41.189Z,41.70
2019-02-18T18:07:36.019Z,41.90
2019-02-18T18:10:31.296Z,41.80
2019-02-18T18:13:26.448Z,42.00
2019-02-18T18:16:21.497Z,42.10
2019-02-18T18:19:16.285Z,42.30
2019-02-18T18:22:11.705Z,42.70
2019-02-18T18:25:06.572Z,43.00
2019-02-18T18:28:01.561Z,43.10
2019-02-18T18:30:56.141Z,42.80
2019-02-18T18:33:51.177Z,43.10
2019-02-18T18:36:46.372Z,43.30
2019-02-18T18:39:41.620Z,43.50
2019-02-18T18:42:36.658Z,43.70
2019-02-18T18:45:31.827Z,43.60
2019-02-18T18:48:27.049Z,43.60
2019-02-18T18:51:21.766Z,43.70
2019-02-18T18:54:16.895Z,43.70
2019-02-18T18:57:11.543Z,43.90
2019-02-18T19:00:06.280Z,44.20
2019-02-18T19:03:00.802Z,44.20
2019-02-18T19:05:55.574Z,44.20
2019-02-18T19:08:50.407Z,44.20
2019-02-18T19:11:47.075Z,44.30
2019-02-18T19:14:40.463Z,44.40
2019-02-18T19:17:35.243Z,44.40
2019-02-18T19:20:29.874Z,44.70
2019-02-18T19:23:25.038Z,44.90
2019-02-18T19:26:19.619Z,45.10
2019-02-18T19:29:15.742Z,45.30
2019-02-18T19:32:09.776Z,45.50
2019-02-18T19:35:04.394Z,45.60
2019-02-18T19:38:00.317Z,45.80
2019-02-18T19:40:55.026Z,45.70
2019-02-18T19:43:50.427Z,46.30
2019-02-18T19:46:44.982Z,46.40
2019-02-18T19:49:39.766Z,46.70
2019-02-18T19:52:34.737Z,46.80
2019-02-18T19:55:29.615Z,46.80
2019-02-18T19:58:24.535Z,47.00
2019-02-18T20:01:18.954Z,47.10
2019-02-18T20:04:13.458Z,47.30
2019-02-18T20:07:08.615Z,47.20
2019-02-18T20:10:03.755Z,47.30
2019-02-18T20:12:58.372Z,47.40
2019-02-18T20:15:52.974Z,47.50
2019-02-18T20:18:47.732Z,47.60
2019-02-18T20:21:43.347Z,47.70
2019-02-18T20:24:37.839Z,47.90
2019-02-18T20:27:32.735Z,47.90
2019-02-18T20:30:27.828Z,48.00
2019-02-18T20:33:22.371Z,48.10
2019-02-18T20:36:17.530Z,48.30
2019-02-18T20:39:12.873Z,48.60
2019-02-18T20:42:07.799Z,48.60
2019-02-18T20:45:02.427Z,48.70
2019-02-18T20:47:58.063Z,49.00
2019-02-18T20:50:52.711Z,49.00
2019-02-18T20:53:47.663Z,49.10
2019-02-18T20:56:42.855Z,49.20
2019-02-18T20:59:37.808Z,49.30
2019-02-18T21:02:32.586Z,49.40
2019-02-18T21:05:27.568Z,49.60
2019-02-18T21:08:22.616Z,50.20
2019-02-18T21:11:17.192Z,49.80
2019-02-18T21:14:16.120Z,50.10
2019-02-18T21:17:06.671Z,50.10
2019-02-18T21:20:01.583Z,50.20
2019-02-18T21:22:56.879Z,50.20
2019-02-18T21:25:51.512Z,50.20
2019-02-18T21:28:46.493Z,50.20
2019-02-18T21:31:41.157Z,50.50
2019-02-18T21:34:35.709Z,50.70
2019-02-18T21:37:30.881Z,50.90
2019-02-18T21:40:26.280Z,51.00
2019-02-18T21:43:20.945Z,51.10
2019-02-18T21:46:16.002Z,51.30
2019-02-18T21:49:10.618Z,51.30
2019-02-18T21:52:05.252Z,51.30
2019-02-18T21:55:00.072Z,51.30
2019-02-18T21:57:55.098Z,51.50
2019-02-18T22:00:49.924Z,51.50
2019-02-18T22:03:44.495Z,51.60
2019-02-18T22:06:39.107Z,51.70
2019-02-18T22:09:33.818Z,51.70
2019-02-18T22:12:28.626Z,51.90
2019-02-18T22:15:23.606Z,51.90
2019-02-18T22:18:18.013Z,51.70
2019-02-18T22:21:12.915Z,51.90
2019-02-18T22:24:08.427Z,52.00
2019-02-18T22:27:03.436Z,52.20
2019-02-18T22:29:58.218Z,52.20
2019-02-18T22:32:52.686Z,52.40
2019-02-18T22:35:47.357Z,52.50
2019-02-18T22:38:42.650Z,52.50
2019-02-18T22:41:37.423Z,52.50
2019-02-18T22:44:32.255Z,52.50
2019-02-18T22:47:27.541Z,52.60
2019-02-18T22:50:22.233Z,52.60
2019-02-18T22:53:17.151Z,52.70
2019-02-18T22:56:12.046Z,52.80
2019-02-18T22:59:06.794Z,52.80
2019-02-18T23:02:01.771Z,52.80
2019-02-18T23:04:56.355Z,53.00
2019-02-18T23:07:51.444Z,53.10
2019-02-18T23:10:45.996Z,53.20
2019-02-18T23:13:40.645Z,53.00
2019-02-18T23:16:35.571Z,53.10
2019-02-18T23:19:30.703Z,53.30
2019-02-18T23:22:25.643Z,53.30
2019-02-18T23:25:21.917Z,53.40
2019-02-18T23:28:16.728Z,53.50
2019-02-18T23:31:11.490Z,53.60
2019-02-18T23:34:06.294Z,53.70
2019-02-18T23:37:02.866Z,53.70
2019-02-18T23:39:57.426Z,53.70
2019-02-18T23:42:52.238Z,53.80
2019-02-18T23:45:47.035Z,53.90
2019-02-18T23:48:41.960Z,54.10
2019-02-18T23:51:36.649Z,54.20
2019-02-18T23:54:31.282Z,54.30
2019-02-18T23:57:25.874Z,54.50
